Time;durP1;ratioP1;P1;durP2;ratioP2;P2;SDS_P1;SDS_P2;PMS_P1;PMS_P2;Temp;Humidity;BMP_temperature;BMP_pressure;BME280_temperature;BME280_humidity;BME280_pressure;Samples;Min_cycle;Max_cycle;Signal;HPM_P1;HPM_P2
2021/10/01 00:01:07;;;;;;;6.00;1.80;;;13.20;86.50;;;;;;5019218;28;20037;-57
2021/10/01 00:03:33;;;;;;;6.10;1.90;;;13.20;86.30;;;;;;5029103;28;20033;-57
2021/10/01 00:05:58;;;;;;;5.13;1.90;;;13.20;86.00;;;;;;5027994;28;20052;-56
2021/10/01 00:08:24;;;;;;;8.95;1.80;;;13.20;86.50;;;;;;5029524;28;20041;-55
2021/10/01 00:10:49;;;;;;;4.30;1.80;;;13.20;86.50;;;;;;5028448;28;20124;-56
2021/10/01 00:13:15;;;;;;;6.78;1.80;;;13.10;87.20;;;;;;5029276;28;20738;-56
2021/10/01 00:15:43;;;;;;;7.05;1.90;;;13.10;87.40;;;;;;5030676;28;20038;-56
2021/10/01 00:18:10;;;;;;;6.63;1.92;;;13.10;87.40;;;;;;5031122;28;20068;-55
2021/10/01 00:20:38;;;;;;;10.50;1.80;;;13.10;87.40;;;;;;5024108;28;20549;-57
2021/10/01 00:23:04;;;;;;;7.65;1.98;;;13.10;87.80;;;;;;5012535;28;20033;-56
2021/10/01 00:25:30;;;;;;;8.10;2.03;;;13.00;88.70;;;;;;5031316;28;20037;-56
2021/10/01 00:27:56;;;;;;;7.10;1.83;;;12.90;89.60;;;;;;5030876;28;20049;-56
2021/10/01 00:30:23;;;;;;;6.53;2.20;;;12.90;90.50;;;;;;5030286;28;20045;-56
2021/10/01 00:32:52;;;;;;;6.53;2.00;;;12.80;90.70;;;;;;5030863;28;20505;-55
2021/10/01 00:35:18;;;;;;;8.13;2.00;;;12.70;91.10;;;;;;5022714;28;20383;-56
2021/10/01 00:37:48;;;;;;;5.70;1.75;;;12.70;91.30;;;;;;5030259;28;20045;-56
2021/10/01 00:40:14;;;;;;;8.82;2.15;;;12.60;91.30;;;;;;5032276;28;20063;-56
2021/10/01 00:42:40;;;;;;;7.90;1.95;;;12.60;91.60;;;;;;5025611;28;20636;-56
2021/10/01 00:45:07;;;;;;;7.93;2.10;;;12.60;91.40;;;;;;5034227;28;20494;-56
2021/10/01 00:47:32;;;;;;;4.60;1.67;;;12.60;91.40;;;;;;5024531;28;20037;-56
2021/10/01 00:49:58;;;;;;;7.15;2.40;;;12.60;91.40;;;;;;5028282;28;20505;-56
2021/10/01 00:52:24;;;;;;;4.35;1.80;;;12.50;91.40;;;;;;5028815;28;20033;-56
2021/10/01 00:54:49;;;;;;;7.47;2.03;;;12.60;91.50;;;;;;5032454;28;20562;-56
2021/10/01 00:57:16;;;;;;;4.88;1.98;;;12.60;91.60;;;;;;5026455;28;20039;-56
2021/10/01 00:59:41;;;;;;;6.28;1.90;;;12.60;91.50;;;;;;5029594;28;20104;-56
2021/10/01 01:02:07;;;;;;;6.47;1.80;;;12.60;91.40;;;;;;5033333;28;20037;-56
2021/10/01 01:04:34;;;;;;;4.80;2.05;;;12.60;91.50;;;;;;5032805;28;20077;-55
2021/10/01 01:07:32;;;;;;;6.30;1.90;;;12.50;91.40;;;;;;5030835;28;20041;-57
2021/10/01 01:10:29;;;;;;;6.80;1.88;;;12.60;91.20;;;;;;5031783;28;20042;-57
2021/10/01 01:13:09;;;;;;;9.15;2.15;;;12.70;91.10;;;;;;5030617;28;20041;-57
2021/10/01 01:15:47;;;;;;;5.38;1.80;;;12.70;91.10;;;;;;5034673;28;20108;-56
2021/10/01 01:18:24;;;;;;;6.65;1.88;;;12.70;91.00;;;;;;5032013;28;20055;-56
2021/10/01 01:20:53;;;;;;;4.93;2.00;;;12.70;90.90;;;;;;5029339;28;20045;-56
2021/10/01 01:23:53;;;;;;;5.18;1.70;;;12.70;90.90;;;;;;5030004;28;20072;-56
2021/10/01 01:26:51;;;;;;;7.20;1.75;;;12.70;90.30;;;;;;5026635;28;20405;-57
2021/10/01 01:29:30;;;;;;;4.90;1.80;;;12.80;90.30;;;;;;4986583;28;20477;-57
2021/10/01 01:31:56;;;;;;;6.85;1.85;;;12.70;90.30;;;;;;5025515;28;20108;-56
2021/10/01 01:34:31;;;;;;;8.70;2.00;;;12.80;90.20;;;;;;5031957;28;20197;-55
2021/10/01 01:37:01;;;;;;;6.43;2.03;;;12.80;90.20;;;;;;5027641;28;20500;-56
2021/10/01 01:39:28;;;;;;;6.60;2.20;;;12.70;90.40;;;;;;5020771;28;20037;-56
2021/10/01 01:41:55;;;;;;;7.32;2.35;;;12.80;90.40;;;;;;5032502;28;20041;-57
2021/10/01 01:44:23;;;;;;;5.18;1.80;;;12.70;90.40;;;;;;5032987;28;20072;-57
2021/10/01 01:46:49;;;;;;;8.77;2.05;;;12.70;90.40;;;;;;5032960;28;20136;-57
2021/10/01 01:49:16;;;;;;;13.43;1.90;;;12.80;90.30;;;;;;5031672;28;20116;-57
2021/10/01 01:51:41;;;;;;;5.50;1.63;;;12.70;90.30;;;;;;5033042;28;20041;-57
2021/10/01 01:54:08;;;;;;;7.65;2.15;;;12.70;90.40;;;;;;5025818;28;20033;-57
2021/10/01 01:56:38;;;;;;;8.20;2.13;;;12.70;90.40;;;;;;5029503;28;20498;-57
2021/10/01 01:59:06;;;;;;;8.38;2.03;;;12.80;90.00;;;;;;5028201;28;20030;-57
2021/10/01 02:01:32;;;;;;;6.32;1.90;;;12.80;90.10;;;;;;5033387;28;20453;-56
2021/10/01 02:04:00;;;;;;;5.55;1.75;;;12.80;90.30;;;;;;5028836;28;20084;-57
2021/10/01 02:06:27;;;;;;;8.68;2.10;;;12.80;90.40;;;;;;5028029;28;20049;-57
2021/10/01 02:08:53;;;;;;;6.60;1.70;;;12.80;89.70;;;;;;5031379;28;20045;-57
2021/10/01 02:11:20;;;;;;;11.10;2.28;;;12.80;90.10;;;;;;5029465;28;20132;-56
2021/10/01 02:13:47;;;;;;;4.68;1.65;;;12.80;90.00;;;;;;5032188;28;20041;-56
2021/10/01 02:16:13;;;;;;;9.98;2.10;;;12.80;90.00;;;;;;5029487;28;20494;-57
2021/10/01 02:18:40;;;;;;;8.52;2.42;;;12.80;90.00;;;;;;5030020;28;20091;-57
2021/10/01 02:21:07;;;;;;;5.97;1.73;;;12.80;89.60;;;;;;5029480;28;20498;-56
2021/10/01 02:23:33;;;;;;;5.45;2.00;;;12.80;89.90;;;;;;5031872;28;20033;-57
2021/10/01 02:28:54;;;;;;;6.00;1.70;;;12.80;90.00;;;;;;5030950;28;20049;-57
2021/10/01 02:31:26;;;;;;;8.25;1.98;;;12.80;89.60;;;;;;5026826;28;20056;-56
2021/10/01 02:33:54;;;;;;;7.40;2.03;;;12.80;90.00;;;;;;5028170;28;20117;-55
2021/10/01 02:36:20;;;;;;;11.95;2.25;;;12.80;90.00;;;;;;5025974;28;20121;-56
2021/10/01 02:38:46;;;;;;;5.45;1.52;;;12.80;90.20;;;;;;5025537;28;20109;-56
2021/10/01 02:41:12;;;;;;;4.68;1.70;;;12.80;90.20;;;;;;5027018;28;20059;-57
2021/10/01 02:43:37;;;;;;;4.43;1.70;;;12.70;90.20;;;;;;5031214;28;20061;-56
2021/10/01 02:46:03;;;;;;;5.20;1.83;;;12.70;90.30;;;;;;5031653;28;20041;-56
2021/10/01 02:48:35;;;;;;;5.80;2.17;;;12.70;90.50;;;;;;5026973;28;20502;-56
2021/10/01 02:51:08;;;;;;;6.88;1.88;;;12.70;90.90;;;;;;5027760;28;20033;-56
2021/10/01 02:53:47;;;;;;;8.57;2.38;;;12.70;91.30;;;;;;5031221;28;20048;-56
2021/10/01 02:56:22;;;;;;;7.15;1.92;;;12.60;91.70;;;;;;5030897;28;20045;-55
2021/10/01 02:59:02;;;;;;;6.55;1.95;;;12.50;91.80;;;;;;5031881;28;20452;-57
2021/10/01 03:01:29;;;;;;;4.63;1.52;;;12.40;92.00;;;;;;5020472;28;20029;-56
2021/10/01 03:04:10;;;;;;;8.02;2.30;;;12.50;91.80;;;;;;5004659;28;20505;-57
2021/10/01 03:06:42;;;;;;;10.55;2.47;;;12.40;91.90;;;;;;5033095;28;20116;-54
2021/10/01 03:09:09;;;;;;;6.25;1.95;;;12.40;92.00;;;;;;5030825;28;20450;-56
2021/10/01 03:11:37;;;;;;;5.18;1.88;;;12.40;92.00;;;;;;5026341;28;20478;-56
2021/10/01 03:14:07;;;;;;;7.13;1.80;;;12.40;91.90;;;;;;4993826;28;1032099;-56
2021/10/01 03:16:34;;;;;;;7.25;2.13;;;12.40;92.00;;;;;;5026625;28;20080;-54
2021/10/01 03:19:02;;;;;;;11.15;2.88;;;12.40;92.00;;;;;;5024626;28;20037;-54
2021/10/01 03:21:28;;;;;;;6.78;2.03;;;12.40;92.00;;;;;;5030775;28;20037;-54
2021/10/01 03:23:55;;;;;;;9.48;2.28;;;12.40;91.70;;;;;;5030201;28;20108;-54
2021/10/01 03:26:21;;;;;;;6.55;1.83;;;12.50;91.60;;;;;;5020168;28;20042;-54
2021/10/01 03:28:51;;;;;;;6.63;1.70;;;12.40;91.40;;;;;;5023604;28;20497;-56
2021/10/01 03:31:17;;;;;;;6.57;1.77;;;12.40;91.40;;;;;;5023543;28;20030;-56
2021/10/01 03:33:45;;;;;;;5.95;2.35;;;12.40;91.40;;;;;;5008666;28;20119;-56
2021/10/01 03:36:10;;;;;;;7.13;1.70;;;12.50;91.10;;;;;;5030912;28;20116;-56
2021/10/01 03:38:37;;;;;;;5.65;1.88;;;12.50;90.90;;;;;;5028823;28;20116;-55
2021/10/01 03:41:07;;;;;;;7.18;2.30;;;12.50;91.20;;;;;;5032301;28;20390;-55
2021/10/01 03:43:32;;;;;;;5.22;1.70;;;12.50;90.90;;;;;;5023817;28;20037;-55
2021/10/01 03:45:58;;;;;;;9.48;2.10;;;12.50;90.80;;;;;;5028037;28;20037;-56
2021/10/01 03:48:25;;;;;;;8.45;2.10;;;12.50;90.60;;;;;;5013086;28;20476;-56
2021/10/01 03:50:51;;;;;;;9.77;2.10;;;12.50;90.40;;;;;;5027843;28;20128;-56
2021/10/01 03:53:17;;;;;;;6.13;2.00;;;12.50;90.40;;;;;;5028475;28;20116;-56
2021/10/01 03:55:42;;;;;;;7.25;2.50;;;12.50;90.40;;;;;;5026031;28;20049;-56
2021/10/01 03:58:08;;;;;;;8.25;1.92;;;12.50;90.10;;;;;;5026675;28;20125;-56
2021/10/01 04:00:35;;;;;;;6.03;1.92;;;12.50;90.40;;;;;;5026933;28;20069;-55
2021/10/01 04:03:01;;;;;;;6.72;1.65;;;12.50;90.50;;;;;;5028334;28;20029;-53
2021/10/01 04:05:26;;;;;;;5.97;1.80;;;12.50;90.60;;;;;;5029272;28;20041;-55
2021/10/01 04:07:52;;;;;;;6.35;1.73;;;12.50;90.50;;;;;;5028237;28;20046;-55
2021/10/01 04:10:18;;;;;;;4.88;1.65;;;12.50;90.30;;;;;;5032994;28;20786;-55
2021/10/01 04:12:44;;;;;;;4.20;1.60;;;12.50;90.50;;;;;;5030411;28;20064;-57
2021/10/01 04:15:10;;;;;;;9.48;2.00;;;12.40;90.60;;;;;;5028973;28;20160;-56
2021/10/01 04:17:38;;;;;;;6.25;1.70;;;12.40;90.70;;;;;;5030168;28;20479;-53
2021/10/01 04:20:05;;;;;;;6.30;1.88;;;12.40;90.80;;;;;;5036127;28;20040;-54
2021/10/01 04:22:30;;;;;;;5.50;2.13;;;12.40;90.80;;;;;;5037356;28;20509;-54
2021/10/01 04:24:56;;;;;;;7.20;2.00;;;12.30;90.80;;;;;;5034362;28;20118;-55
2021/10/01 04:27:22;;;;;;;8.65;2.17;;;12.40;90.70;;;;;;5027867;28;20033;-55
2021/10/01 04:29:47;;;;;;;7.05;1.63;;;12.40;90.50;;;;;;5032465;28;20033;-55
2021/10/01 04:32:13;;;;;;;7.07;1.95;;;12.40;90.70;;;;;;5033603;28;20026;-56
2021/10/01 04:35:12;;;;;;;7.85;1.73;;;12.30;90.70;;;;;;5034347;28;20084;-56
2021/10/01 04:37:31;;;;;;;6.60;1.70;;;12.40;90.60;;;;;;5032531;28;20437;-56
2021/10/01 04:39:56;;;;;;;3.35;1.33;;;12.30;90.70;;;;;;5034737;28;20060;-56
2021/10/01 04:42:22;;;;;;;6.47;1.80;;;12.30;91.10;;;;;;5033836;28;20379;-56
2021/10/01 04:44:48;;;;;;;5.20;1.83;;;12.30;91.00;;;;;;5033042;28;20533;-55
2021/10/01 04:47:13;;;;;;;5.78;1.90;;;12.30;91.00;;;;;;5029131;28;20033;-56
2021/10/01 04:49:39;;;;;;;8.25;1.80;;;12.30;90.80;;;;;;5026755;28;20034;-56
2021/10/01 04:52:08;;;;;;;6.00;1.85;;;12.30;91.00;;;;;;5028136;28;20473;-57
2021/10/01 04:54:34;;;;;;;8.00;1.83;;;12.30;90.70;;;;;;5025217;28;20432;-56
2021/10/01 04:57:00;;;;;;;6.43;1.90;;;12.30;90.80;;;;;;5026709;28;20047;-56
2021/10/01 04:59:25;;;;;;;5.43;1.80;;;12.30;90.90;;;;;;5032991;28;20033;-56
2021/10/01 05:01:51;;;;;;;8.23;1.88;;;12.30;90.80;;;;;;5030528;28;20475;-56
2021/10/01 05:04:17;;;;;;;5.95;1.70;;;12.30;90.80;;;;;;5033126;28;20120;-56
2021/10/01 05:06:42;;;;;;;5.38;1.77;;;12.30;91.00;;;;;;5033190;28;20038;-55
2021/10/01 05:09:08;;;;;;;5.85;1.60;;;12.30;91.00;;;;;;5033031;28;20516;-56
2021/10/01 05:11:34;;;;;;;4.22;1.58;;;12.30;91.00;;;;;;5033071;28;20510;-56
2021/10/01 05:14:00;;;;;;;6.70;1.70;;;12.30;90.80;;;;;;5033316;28;20041;-54
2021/10/01 05:16:26;;;;;;;6.68;1.70;;;12.30;90.90;;;;;;5034531;28;20034;-55
2021/10/01 05:18:52;;;;;;;6.15;1.60;;;12.30;90.50;;;;;;5023894;28;20046;-57
2021/10/01 05:21:17;;;;;;;7.32;2.13;;;12.30;90.70;;;;;;5029670;28;20489;-57
2021/10/01 05:23:48;;;;;;;7.65;1.80;;;12.30;90.40;;;;;;5022660;28;20088;-56
2021/10/01 05:26:13;;;;;;;6.40;1.77;;;12.40;90.20;;;;;;5022426;28;20050;-55
2021/10/01 05:28:39;;;;;;;5.93;1.80;;;12.30;90.20;;;;;;5023272;28;20033;-56
2021/10/01 05:31:04;;;;;;;3.05;1.67;;;12.30;90.30;;;;;;5018891;28;20040;-58
2021/10/01 05:33:30;;;;;;;4.63;1.60;;;12.20;90.40;;;;;;5018877;28;20066;-56
2021/10/01 05:35:55;;;;;;;5.80;1.73;;;12.20;90.40;;;;;;5029280;28;20484;-57
2021/10/01 05:38:24;;;;;;;5.32;1.70;;;12.20;90.50;;;;;;5033279;28;20032;-55
2021/10/01 05:40:50;;;;;;;5.53;1.63;;;12.10;90.60;;;;;;5030179;28;20042;-55
2021/10/01 05:43:24;;;;;;;3.97;1.50;;;12.10;90.70;;;;;;5033074;28;20037;-55
2021/10/01 05:45:53;;;;;;;6.15;1.70;;;12.10;90.60;;;;;;5032878;28;20049;-55
2021/10/01 05:48:19;;;;;;;6.18;1.67;;;12.10;90.60;;;;;;5032071;28;20037;-55
2021/10/01 05:50:52;;;;;;;11.18;1.83;;;12.10;90.50;;;;;;5032263;28;20071;-58
2021/10/01 05:53:46;;;;;;;5.90;1.50;;;12.00;90.50;;;;;;5033184;28;20048;-56
2021/10/01 05:56:12;;;;;;;6.78;1.90;;;12.00;90.70;;;;;;5027404;28;20033;-54
2021/10/01 05:58:39;;;;;;;5.25;1.58;;;12.00;90.70;;;;;;5024786;28;20049;-57
2021/10/01 06:01:06;;;;;;;9.07;1.95;;;12.00;90.80;;;;;;5023031;28;20038;-56
2021/10/01 06:03:31;;;;;;;6.57;1.60;;;11.90;90.90;;;;;;5032310;28;20178;-56
2021/10/01 06:05:57;;;;;;;4.63;1.63;;;11.90;91.00;;;;;;5032838;28;20120;-55
2021/10/01 06:08:23;;;;;;;5.57;1.65;;;11.90;90.90;;;;;;5032789;28;20135;-56
2021/10/01 06:10:48;;;;;;;6.95;1.80;;;12.00;90.50;;;;;;5032720;28;20398;-55
2021/10/01 06:13:17;;;;;;;5.57;1.63;;;12.00;90.70;;;;;;5032179;28;20034;-55
2021/10/01 06:15:43;;;;;;;7.07;1.83;;;11.90;90.90;;;;;;5032904;28;20118;-56
2021/10/01 06:18:10;;;;;;;5.05;2.03;;;12.00;91.20;;;;;;5030631;28;20029;-54
2021/10/01 06:20:36;;;;;;;6.20;1.63;;;12.00;90.80;;;;;;5030693;28;20064;-55
2021/10/01 06:23:02;;;;;;;9.10;1.75;;;12.00;91.00;;;;;;5021293;28;20498;-54
2021/10/01 06:25:27;;;;;;;3.88;1.60;;;12.00;91.00;;;;;;5032698;28;20083;-52
2021/10/01 06:27:53;;;;;;;5.95;1.75;;;12.10;90.90;;;;;;5028596;28;20128;-55
2021/10/01 06:30:19;;;;;;;6.75;1.67;;;12.10;90.90;;;;;;5029380;28;20037;-56
2021/10/01 06:32:45;;;;;;;6.55;1.95;;;12.10;90.80;;;;;;5011621;28;20518;-56
2021/10/01 06:35:11;;;;;;;7.40;1.70;;;12.10;90.90;;;;;;5027092;28;20101;-55
2021/10/01 06:37:37;;;;;;;4.97;1.70;;;12.10;91.10;;;;;;5030497;28;20041;-58
2021/10/01 06:40:05;;;;;;;7.47;1.60;;;12.20;90.80;;;;;;5032807;28;20033;-55
2021/10/01 06:42:31;;;;;;;6.45;1.55;;;12.20;90.40;;;;;;5027171;28;20558;-55
2021/10/01 06:45:02;;;;;;;5.28;1.42;;;12.30;89.70;;;;;;5034079;28;20124;-54
2021/10/01 08:20:11;;;;;;;5.85;1.63;;;14.00;85.20;;;;;;5049102;28;20408;-54
2021/10/01 08:22:37;;;;;;;5.20;1.65;;;14.00;85.80;;;;;;5046876;28;20116;-53
2021/10/01 08:25:03;;;;;;;6.13;1.40;;;13.90;85.10;;;;;;5049598;28;20029;-51
2021/10/01 08:27:29;;;;;;;5.05;1.55;;;14.00;85.70;;;;;;5049168;28;20099;-53
2021/10/01 08:29:55;;;;;;;5.60;1.38;;;13.90;85.00;;;;;;5046399;28;20040;-55
2021/10/01 08:32:20;;;;;;;7.63;2.00;;;13.90;85.40;;;;;;5044085;28;20034;-55
2021/10/01 08:34:46;;;;;;;5.68;1.52;;;13.90;86.10;;;;;;5044063;28;20405;-54
2021/10/01 08:37:14;;;;;;;5.25;1.30;;;14.00;85.90;;;;;;5047118;28;20637;-54
2021/10/01 08:39:40;;;;;;;6.80;1.67;;;14.00;85.20;;;;;;5043917;28;20041;-55
2021/10/01 08:42:05;;;;;;;4.90;1.50;;;14.00;85.00;;;;;;5048301;28;20492;-54
2021/10/01 08:44:32;;;;;;;6.75;1.60;;;14.00;85.30;;;;;;5045941;28;20651;-54
2021/10/01 08:47:02;;;;;;;5.85;1.58;;;14.10;84.30;;;;;;5027651;28;20052;-53
2021/10/01 08:49:28;;;;;;;7.15;1.60;;;14.10;84.90;;;;;;5050243;28;20122;-52
2021/10/01 08:51:54;;;;;;;6.90;1.60;;;14.20;84.50;;;;;;5031698;28;20036;-51
2021/10/01 08:54:20;;;;;;;5.18;1.40;;;14.20;85.30;;;;;;5048549;28;20037;-54
2021/10/01 08:56:46;;;;;;;6.95;1.60;;;14.20;83.90;;;;;;5046604;28;20128;-52
2021/10/01 08:59:11;;;;;;;5.38;1.70;;;14.20;84.20;;;;;;5040373;28;20045;-53
2021/10/01 09:01:37;;;;;;;4.53;1.52;;;14.20;83.70;;;;;;5050268;28;20134;-53
2021/10/01 09:04:04;;;;;;;6.95;1.60;;;14.20;83.30;;;;;;5049052;28;20032;-54
2021/10/01 09:06:30;;;;;;;6.50;1.67;;;14.20;83.40;;;;;;5050547;28;20043;-51
2021/10/01 09:08:59;;;;;;;5.18;1.88;;;14.20;83.90;;;;;;5047846;28;20127;-51
2021/10/01 09:11:33;;;;;;;5.35;1.98;;;14.20;84.80;;;;;;5049478;28;20068;-52
2021/10/01 09:14:04;;;;;;;6.88;1.73;;;14.20;84.70;;;;;;5045487;28;20044;-53
2021/10/01 09:16:30;;;;;;;5.03;1.90;;;14.20;84.20;;;;;;5051188;28;20052;-54
2021/10/01 09:18:56;;;;;;;6.32;1.60;;;14.20;84.70;;;;;;5045882;28;20303;-52
2021/10/01 09:21:23;;;;;;;10.20;1.80;;;14.10;85.10;;;;;;5047136;28;20090;-53
2021/10/01 09:24:04;;;;;;;5.10;1.45;;;14.10;84.80;;;;;;5048965;28;20041;-51
2021/10/01 09:26:33;;;;;;;9.68;1.95;;;14.20;84.90;;;;;;5047955;28;20552;-51
2021/10/01 09:29:00;;;;;;;6.68;1.98;;;14.20;84.80;;;;;;5053303;28;20518;-53
2021/10/01 09:31:40;;;;;;;9.00;1.80;;;14.20;85.50;;;;;;5053159;28;20304;-52
2021/10/01 09:34:26;;;;;;;4.85;1.70;;;14.20;85.60;;;;;;5050645;28;20051;-55
2021/10/01 09:37:03;;;;;;;8.88;1.60;;;14.20;86.10;;;;;;5044286;28;20081;-55
2021/10/01 09:39:36;;;;;;;10.75;1.60;;;14.30;85.90;;;;;;5041799;28;20033;-53
2021/10/01 09:42:18;;;;;;;7.88;1.70;;;14.30;85.40;;;;;;5049091;28;20037;-54
2021/10/01 09:44:49;;;;;;;6.85;1.63;;;14.40;85.20;;;;;;5052031;28;20041;-53
2021/10/01 09:47:15;;;;;;;6.53;1.70;;;14.50;85.50;;;;;;5043821;28;20065;-54
2021/10/01 09:49:42;;;;;;;6.68;1.80;;;14.50;86.00;;;;;;5047983;28;20057;-51
2021/10/01 09:52:11;;;;;;;5.25;1.77;;;14.60;85.90;;;;;;5048741;28;20033;-51
2021/10/01 09:54:37;;;;;;;7.40;1.80;;;14.60;85.60;;;;;;5041880;28;20116;-54
2021/10/01 09:57:06;;;;;;;4.50;1.63;;;14.70;85.80;;;;;;5043850;28;20493;-54
2021/10/01 09:59:33;;;;;;;4.63;1.45;;;14.70;86.10;;;;;;5050282;28;20044;-54
2021/10/01 10:02:13;;;;;;;4.30;1.65;;;14.80;86.20;;;;;;5047554;28;20064;-55
2021/10/01 10:04:52;;;;;;;7.05;1.92;;;14.80;85.60;;;;;;5048110;28;21049;-51
2021/10/01 10:07:28;;;;;;;7.10;1.55;;;14.80;85.70;;;;;;5042016;28;20037;-53
2021/10/01 10:10:04;;;;;;;8.98;1.60;;;14.80;85.00;;;;;;5037752;28;20486;-53
2021/10/01 10:12:32;;;;;;;7.82;1.50;;;14.90;84.70;;;;;;5047230;28;20040;-56
2021/10/01 10:14:58;;;;;;;6.53;1.88;;;14.90;85.10;;;;;;5043797;28;20037;-54
2021/10/01 10:17:27;;;;;;;4.90;1.63;;;15.00;84.10;;;;;;5042718;28;20035;-54
2021/10/01 10:19:55;;;;;;;4.90;1.70;;;15.00;84.90;;;;;;5045002;28;20067;-54
2021/10/01 10:22:23;;;;;;;3.95;1.38;;;15.10;84.70;;;;;;5044515;28;20041;-55
2021/10/01 10:24:49;;;;;;;6.78;1.77;;;15.10;84.30;;;;;;5047022;28;20029;-53
2021/10/01 10:27:15;;;;;;;4.40;1.60;;;15.10;85.00;;;;;;5050230;28;20389;-55
2021/10/01 10:29:44;;;;;;;5.43;1.60;;;15.20;85.70;;;;;;5049442;28;20528;-52
2021/10/01 10:32:13;;;;;;;8.30;1.50;;;15.20;85.30;;;;;;5048955;28;20033;-54
2021/10/01 10:34:56;;;;;;;5.20;1.70;;;15.20;85.20;;;;;;5048303;28;20033;-54
2021/10/01 10:37:43;;;;;;;4.93;1.40;;;15.20;85.80;;;;;;5050869;28;20068;-52
2021/10/01 10:40:16;;;;;;;5.80;1.80;;;15.30;86.10;;;;;;5050296;28;20033;-53
2021/10/01 10:42:48;;;;;;;4.45;1.60;;;15.20;86.30;;;;;;5051614;28;20040;-54
2021/10/01 10:45:24;;;;;;;5.53;2.07;;;15.30;86.50;;;;;;5051673;28;20416;-54
2021/10/01 10:48:08;;;;;;;5.18;1.90;;;15.30;86.10;;;;;;5050151;28;20516;-54
2021/10/01 10:50:46;;;;;;;10.63;1.73;;;15.40;86.20;;;;;;5051544;28;20037;-54
2021/10/01 10:53:16;;;;;;;7.43;1.90;;;15.50;86.20;;;;;;5044800;28;20036;-52
2021/10/01 10:55:50;;;;;;;5.78;1.73;;;15.50;85.90;;;;;;5049207;28;20041;-53
2021/10/01 10:58:22;;;;;;;8.27;1.85;;;15.40;85.90;;;;;;5040469;28;20040;-55
2021/10/01 11:00:49;;;;;;;7.72;1.88;;;15.30;85.60;;;;;;5051073;28;20039;-54
2021/10/01 11:03:29;;;;;;;4.97;2.10;;;15.30;86.40;;;;;;5045919;28;20036;-55
2021/10/01 11:06:17;;;;;;;6.30;1.75;;;15.30;86.90;;;;;;5047991;28;20049;-54
2021/10/01 11:09:09;;;;;;;4.25;1.77;;;15.30;85.10;;;;;;5036457;28;20073;-56
2021/10/01 11:11:40;;;;;;;6.80;2.00;;;15.20;85.80;;;;;;5049280;28;20045;-55
2021/10/01 11:14:15;;;;;;;6.80;1.85;;;15.20;86.00;;;;;;5039532;28;20043;-54
2021/10/01 11:17:01;;;;;;;5.97;1.75;;;15.20;85.90;;;;;;5038627;28;20080;-54
2021/10/01 11:19:38;;;;;;;5.97;1.42;;;15.10;87.00;;;;;;5034834;28;20496;-54
2021/10/01 11:22:25;;;;;;;3.67;1.73;;;15.10;87.50;;;;;;5040270;28;20045;-54
2021/10/01 11:25:17;;;;;;;5.28;2.15;;;15.00;88.30;;;;;;5024450;28;20048;-55
2021/10/01 11:27:52;;;;;;;7.95;1.90;;;14.90;89.10;;;;;;5022286;28;20539;-51
2021/10/01 11:30:19;;;;;;;8.23;1.98;;;14.80;89.50;;;;;;5044277;28;20041;-54
2021/10/01 11:32:45;;;;;;;9.40;2.05;;;14.80;90.70;;;;;;5047336;28;20068;-53
2021/10/01 11:35:11;;;;;;;7.50;2.22;;;14.70;91.40;;;;;;5046727;28;20558;-54
2021/10/01 11:37:40;;;;;;;7.45;2.10;;;14.70;91.90;;;;;;5042781;28;20489;-52
2021/10/01 11:40:10;;;;;;;6.13;2.17;;;14.60;91.80;;;;;;5044292;28;20037;-54
2021/10/01 11:42:43;;;;;;;6.25;2.05;;;14.60;91.90;;;;;;5050828;28;20124;-55
2021/10/01 11:45:18;;;;;;;6.78;2.08;;;14.50;91.90;;;;;;5043001;28;20507;-54
2021/10/01 11:47:59;;;;;;;6.13;1.98;;;14.40;92.60;;;;;;5041811;28;20404;-54
2021/10/01 11:50:36;;;;;;;7.05;2.53;;;14.30;93.00;;;;;;5047454;28;20597;-54
2021/10/01 11:53:04;;;;;;;6.32;2.20;;;14.20;93.50;;;;;;5050320;28;20033;-56
2021/10/01 11:55:34;;;;;;;10.40;2.40;;;14.20;94.10;;;;;;5050669;28;20048;-54
2021/10/01 11:58:02;;;;;;;10.40;2.70;;;14.10;94.20;;;;;;5042085;28;20061;-52
2021/10/01 12:00:27;;;;;;;10.05;2.72;;;14.00;94.60;;;;;;5042855;28;20526;-53
2021/10/01 12:02:54;;;;;;;6.93;2.58;;;13.90;95.10;;;;;;5045686;28;20037;-52
2021/10/01 12:05:35;;;;;;;6.28;2.50;;;14.00;95.40;;;;;;5050839;28;20116;-54
2021/10/01 12:08:02;;;;;;;6.85;2.45;;;14.00;95.50;;;;;;5049247;28;20532;-51
2021/10/01 12:10:31;;;;;;;9.93;2.72;;;14.10;95.80;;;;;;5048341;28;20037;-54
2021/10/01 12:13:14;;;;;;;8.32;3.10;;;14.10;95.60;;;;;;5049593;28;20045;-54
2021/10/01 12:15:43;;;;;;;7.18;2.92;;;14.10;96.00;;;;;;5045906;28;20041;-54
2021/10/01 12:18:42;;;;;;;5.82;2.70;;;14.20;96.00;;;;;;5043140;28;20042;-54
2021/10/01 12:21:15;;;;;;;6.57;2.70;;;14.30;96.20;;;;;;5044840;28;20044;-54
2021/10/01 12:24:04;;;;;;;5.78;2.70;;;14.40;96.10;;;;;;5049868;28;20037;-54
2021/10/01 12:26:35;;;;;;;6.72;2.88;;;14.50;96.10;;;;;;5043261;28;20041;-54
2021/10/01 12:29:12;;;;;;;6.68;2.65;;;14.60;96.20;;;;;;5048200;28;20033;-51
2021/10/01 12:31:53;;;;;;;6.13;2.60;;;14.80;95.80;;;;;;5050568;28;20087;-54
2021/10/01 12:34:41;;;;;;;5.47;2.35;;;14.80;95.60;;;;;;5047699;28;20571;-55
2021/10/01 12:37:16;;;;;;;7.50;2.80;;;15.00;95.20;;;;;;5047975;28;20123;-51
2021/10/01 12:39:43;;;;;;;6.60;2.50;;;15.00;94.80;;;;;;5051946;28;20481;-54
2021/10/01 12:42:12;;;;;;;8.32;2.33;;;15.10;93.90;;;;;;5046827;28;20116;-52
2021/10/01 12:44:40;;;;;;;10.30;2.38;;;15.10;93.70;;;;;;5052943;28;20407;-51
2021/10/01 12:47:19;;;;;;;4.28;2.05;;;15.20;93.00;;;;;;5047558;28;20048;-52
2021/10/01 12:50:05;;;;;;;5.97;1.92;;;15.20;93.10;;;;;;5050752;28;20482;-54
2021/10/01 12:52:32;;;;;;;7.20;2.03;;;15.20;93.00;;;;;;5048092;28;20037;-53
2021/10/01 12:55:00;;;;;;;5.00;2.00;;;15.30;92.30;;;;;;5052963;28;20497;-54
2021/10/01 12:57:29;;;;;;;9.20;2.28;;;15.30;91.70;;;;;;5046473;28;20090;-57
2021/10/01 13:00:03;;;;;;;8.88;2.05;;;15.40;91.60;;;;;;5049724;28;20037;-55
2021/10/01 13:02:47;;;;;;;7.15;2.10;;;15.40;90.60;;;;;;5043869;28;20121;-54
2021/10/01 13:05:18;;;;;;;8.25;1.92;;;15.50;89.80;;;;;;5048428;28;20056;-52
2021/10/01 13:07:46;;;;;;;4.57;2.03;;;15.60;89.20;;;;;;5067700;22;20049;-56
2021/10/01 13:10:13;;;;;;;6.68;1.70;;;15.70;88.50;;;;;;5005780;28;20045;-56
2021/10/01 13:12:44;;;;;;;5.53;1.83;;;15.80;85.60;;;;;;5007448;28;20046;-55
2021/10/01 13:15:14;;;;;;;4.15;1.80;;;15.90;86.70;;;;;;5009588;28;20473;-56
2021/10/01 13:17:40;;;;;;;6.65;2.33;;;15.90;87.70;;;;;;5010191;28;20041;-55
2021/10/01 13:20:06;;;;;;;5.55;1.52;;;15.90;85.50;;;;;;5010839;28;20037;-56
2021/10/01 13:22:57;;;;;;;7.45;1.67;;;16.00;85.80;;;;;;5010751;28;20115;-56
2021/10/01 13:25:28;;;;;;;5.28;1.85;;;16.00;84.60;;;;;;5012574;28;20037;-55
2021/10/01 13:27:55;;;;;;;6.43;1.90;;;16.00;85.20;;;;;;5010566;28;20045;-55
2021/10/01 13:30:21;;;;;;;5.22;2.00;;;16.00;86.40;;;;;;5010968;28;20042;-55
2021/10/01 13:32:48;;;;;;;5.30;1.80;;;16.00;84.80;;;;;;5010860;28;20088;-55
2021/10/01 13:35:15;;;;;;;8.38;1.88;;;15.90;85.60;;;;;;5010844;28;20124;-55
2021/10/01 13:37:43;;;;;;;5.40;1.80;;;15.90;86.00;;;;;;5010295;28;20045;-55
2021/10/01 13:40:09;;;;;;;6.22;2.05;;;15.80;86.50;;;;;;5022896;28;20510;-55
2021/10/01 13:42:35;;;;;;;6.57;1.65;;;15.80;85.50;;;;;;5009738;28;20113;-56
2021/10/01 13:45:00;;;;;;;8.60;1.92;;;15.90;84.70;;;;;;5010981;28;20055;-56
2021/10/01 13:47:26;;;;;;;5.72;1.75;;;15.90;84.10;;;;;;5010864;28;20444;-56
2021/10/01 13:49:52;;;;;;;6.28;2.20;;;15.90;84.60;;;;;;4993428;28;20389;-56
2021/10/01 13:52:17;;;;;;;5.68;1.80;;;15.90;84.80;;;;;;5010406;28;20037;-56
2021/10/01 13:54:43;;;;;;;5.20;1.70;;;15.90;84.70;;;;;;5010891;28;20026;-56
2021/10/01 13:57:08;;;;;;;5.80;1.95;;;15.90;84.70;;;;;;5011331;28;20066;-57
2021/10/01 13:59:34;;;;;;;5.05;1.60;;;15.90;84.90;;;;;;5011633;28;20030;-56
2021/10/01 14:02:00;;;;;;;8.77;1.80;;;15.90;85.20;;;;;;5008136;28;20034;-57
2021/10/01 14:04:27;;;;;;;6.40;1.88;;;15.80;85.30;;;;;;5009748;28;20030;-57
2021/10/01 14:06:53;;;;;;;4.53;1.80;;;15.90;85.40;;;;;;5011201;28;20026;-57
2021/10/01 14:09:18;;;;;;;7.13;1.77;;;15.80;85.90;;;;;;5010724;28;20044;-55
2021/10/01 14:11:44;;;;;;;6.32;2.03;;;15.80;86.30;;;;;;5023080;28;20088;-56
2021/10/01 14:14:09;;;;;;;9.30;1.83;;;15.90;86.10;;;;;;5010264;28;20472;-57
2021/10/01 14:16:36;;;;;;;6.13;2.10;;;15.80;85.40;;;;;;5007698;28;20053;-56
2021/10/01 14:19:01;;;;;;;4.90;1.70;;;15.90;85.80;;;;;;5008246;28;20038;-56
2021/10/01 14:21:27;;;;;;;5.50;1.77;;;15.90;84.50;;;;;;5011125;28;20038;-55
2021/10/01 14:23:52;;;;;;;5.70;1.65;;;15.90;83.80;;;;;;5008884;28;20510;-56
2021/10/01 14:26:18;;;;;;;5.50;1.90;;;15.90;84.00;;;;;;5004938;28;20622;-56
2021/10/01 14:28:44;;;;;;;5.38;1.95;;;16.00;83.00;;;;;;4997261;28;20108;-55
2021/10/01 14:31:10;;;;;;;3.97;1.75;;;16.00;83.40;;;;;;5011456;28;20038;-56
2021/10/01 14:33:36;;;;;;;5.63;1.60;;;16.00;83.60;;;;;;5009368;28;20041;-57